Dikgonye, Botswana

8:10 PM CAT on February 21, 2017 (GMT +0200)
Sir Seretse Khama International | | Change Station

Elev 3297 ft 24.56 °S, 25.92 °E | Updated 10 minutes ago

Rain
Rain
68 °F
Feels Like 68 °F
N
7
Wind Variable Wind from North

Today
High -- | Low -- °F
--% Chance of Precip.
Yesterday
High -- | Low -- °F
Precip. -- in
Pressure 29.86 in
Visibility 6.2 miles
Clouds Mostly Cloudy 1000 ft
Few 3000 ft
Scattered Clouds 6500 ft
Dew Point 68 °F
Humidity 100%
Rainfall 0.00 in
Snow Depth Not available.
6:06 AM 6:51 PM
Waning Crescent, 23% visible
METAR FBSK 211800Z 36006KT 9999 BKN010 FEW030CB SCT065 20/20 Q1011 NOSIG
Pressure 29.86 in
Visibility 6.2 miles
Clouds Mostly Cloudy 1000 ft
Few 3000 ft
Scattered Clouds 6500 ft
Dew Point 68 °F
Humidity 100%
Rainfall 0.00 in
Snow Depth Not available.
6:06 AM 6:51 PM
Waning Crescent, 23% visible
METAR FBSK 211800Z 36006KT 9999 BKN010 FEW030CB SCT065 20/20 Q1011 NOSIG

Get Your Daily Forecast Email!

Thanks for signing up!

Be on the lookout for a verification email in your inbox.

You'll start receiving the daily forecast at 8 AM.

×

10-Day Weather Forecast

No radar image for this location.
×

Almanac

Astronomy

Feb. 21, 2017 Rise Set
Actual Time
Civil Twilight
Nautical Twilight
Astronomical Twilight
Moon
Length of Visible Light
Length of Day
Tomorrow will be .
, % of the Moon is Illuminated

Today's Extremes

Country Highs Country Lows

Community

WunderPhotos

Upload Photos

1,962,540 photos uploaded!

WunderBlog® & News

Nearby

Air Quality

  Air Quality AQ Index Pollutant
Not available.

Snow Depth

Station Depth Elevation

Earthquake Activity

City Distance Mag. Time & Date
Minimum magnitude displayed is 2.5.

Coastal Water Temperatures

Place Temperature

Stations

Nearby Weather Stations

Station Location Temp. Windchill Dew Point Humidity Wind Precip. Elev Updated Type